South Coast: Past 24 Hour Conditions

 

Bonavista

05:30 PM NST 22 November 2014
This table is a summary of hourly weather conditions for the past 24 hours.
Date / Time
(NST)
Wind(knots) Conditions Visibility(km) Pressure(kPa) Air tempC) Relative humidity(%) Dew pointC) Wind Chill
22 November 2014
17:30 W 35 gust 45 N/A N/A 100.5 -3 60 -9 -13
16:30 W 37 gust 43 N/A N/A 100.4 -2 61 -9 -12
15:30 W 35 gust 44 N/A N/A 100.3 -2 55 -10 -12
14:30 W 34 gust 40 N/A N/A 100.3 -1 57 -9 -11
13:30 W 33 gust 38 N/A N/A 100.2 -2 55 -9 -11
12:30 W 34 gust 40 N/A N/A 100.1 -2 58 -9 -12
11:30 WNW 37 gust 47 N/A N/A 100.1 -2 58 -10 -13
10:30 W 36 N/A N/A 100.2 -3 65 -9 -14
9:30 W 35 gust 44 N/A N/A 100.1 -4 69 -9 -14
8:30 W 37 gust 42 N/A N/A 100.1 -4 66 -10 -15
7:30 W 37 gust 44 N/A N/A 100.0 -4 69 -9 -15
6:30 W 32 gust 42 N/A N/A 100.0 -4 71 -8 -14
5:30 W 35 gust 43 N/A N/A 99.9 -4 71 -8 -14
4:30 WNW 35 gust 42 N/A N/A 99.9 -3 69 -8 -14
3:30 W 34 gust 41 N/A N/A 99.8 -3 65 -9 -13
2:30 W 30 gust 37 N/A N/A 99.7 -2 72 -6 -11
1:30 WNW 33 N/A N/A 99.6 -1 70 -6 -10
0:30 W 28 gust 36 N/A N/A 99.6 -1 76 -5 -9
21 November 2014
23:30 WSW 28 N/A N/A 99.6 0 74 -4 -9
22:30 WSW 23 gust 34 N/A N/A 99.6 0 70 -5 -8
21:30 WSW 29 gust 34 N/A N/A 99.6 0 64 -6 *
20:30 WSW 30 gust 35 N/A N/A 99.7 1 60 -6 *
19:30 WSW 25 gust 31 N/A N/A 99.6 1 70 -4 *
18:30 WSW 29 N/A N/A 99.7 2 70 -3 *
17:30 WSW 21 gust 27 N/A N/A 99.6 4 77 0 *
 
Map of Atlantic - Newfoundland marine weather areas Southwestern Grand Banks - 44138 Banquereau - 44139 Tail of the Bank - 44140 Nickerson Bank - 44251 Northeast Burgeo Bank - 44255 Blanc-Sablon Airport Cap Whittle Chevery Natashquan Airport Heath Point Miscou Island Grand Étang Ingonish Beach North Mountain St.Paul Island J.A. Douglas McCurdy Sydney Airport Charlottetown Airport East Point North Cape Argentia Bonavista Burgeo Cape Race Corner Brook Daniel's Harbour Englee Ferolle Point La Scie Port aux Basques Rocky Harbour Sagona Island St. Anthony Airport St. John's Int'l Airport St. Lawrence Stephenville Airport Twillingate Winterland Wreckhouse Cartwright Airport Mary's Harbour Grates Cove Pool's Island Marticot Island Long Pond Îles de la Madeleine Airport
Legend: buoyBuoy land stationLand Station